VLG25Y LEMD-LEMG
Flight info
| Callsign | VLG25Y |
|---|---|
| Flight time | N/A |
| Altitude | 31000 |
| Route | VTB N10 CRISA N864 VULPE |
| Aircraft | A320/M-SDE3FGHIRWY/LB1 |
Departure
| Time | 2026-04-30 14:37 |
|---|---|
| Airport | Adolfo Suárez Madrid–Barajas Airport (LEMD) |
Arrival
| Time | N/A |
|---|---|
| Airport | Málaga-Costa del Sol Airport (LEMG) |
| Time | Latitude | Longitude | Altitude | Speed | Heading |
|---|---|---|---|---|---|
| 2026-04-30 14:06 | 40.49609 | -3.59182 | 1981 ft | 0 kts | 90° |
| 2026-04-30 14:26 | 40.49611 | -3.59215 | 1981 ft | 4 kts | 115° |
| 2026-04-30 14:26 | 40.49628 | -3.59239 | 1984 ft | 4 kts | 169° |
| 2026-04-30 14:26 | 40.49636 | -3.59241 | 1980 ft | 0 kts | 180° |
| 2026-04-30 14:29 | 40.49622 | -3.59244 | 1983 ft | 6 kts | 199° |
| 2026-04-30 14:29 | 40.49707 | -3.59295 | 1980 ft | 7 kts | 359° |
| 2026-04-30 14:30 | 40.49746 | -3.59019 | 1981 ft | 16 kts | 90° |
| 2026-04-30 14:31 | 40.49734 | -3.58716 | 1980 ft | 18 kts | 95° |
| 2026-04-30 14:31 | 40.49651 | -3.58457 | 1980 ft | 18 kts | 90° |
| 2026-04-30 14:31 | 40.49650 | -3.58291 | 1980 ft | 19 kts | 89° |
| 2026-04-30 14:32 | 40.49653 | -3.58039 | 1980 ft | 14 kts | 89° |
| 2026-04-30 14:32 | 40.49607 | -3.57942 | 1982 ft | 14 kts | 165° |
| 2026-04-30 14:32 | 40.49507 | -3.57940 | 1980 ft | 15 kts | 180° |
| 2026-04-30 14:33 | 40.49397 | -3.57940 | 1984 ft | 16 kts | 180° |
| 2026-04-30 14:33 | 40.49245 | -3.57840 | 1980 ft | 14 kts | 88° |
| 2026-04-30 14:33 | 40.49245 | -3.57704 | 1980 ft | 15 kts | 90° |
| 2026-04-30 14:34 | 40.49267 | -3.57577 | 1981 ft | 0 kts | 60° |
| 2026-04-30 14:35 | 40.49283 | -3.57545 | 1981 ft | 9 kts | 51° |
| 2026-04-30 14:35 | 40.49322 | -3.57485 | 1980 ft | 8 kts | 49° |
| 2026-04-30 14:36 | 40.49367 | -3.57464 | 1982 ft | 7 kts | 3° |
| 2026-04-30 14:36 | 40.49370 | -3.57464 | 1981 ft | 0 kts | 0° |
| 2026-04-30 14:36 | 40.49423 | -3.57464 | 1980 ft | 21 kts | 0° |
| 2026-04-30 14:37 | 40.49818 | -3.57463 | 1980 ft | 92 kts | 0° |
| 2026-04-30 14:37 | 40.50657 | -3.57469 | 1981 ft | 148 kts | 360° |
| 2026-04-30 14:37 | 40.51834 | -3.57464 | 2135 ft | 178 kts | 1° |
| 2026-04-30 14:37 | 40.53030 | -3.57451 | 2936 ft | 168 kts | 1° |
| 2026-04-30 14:38 | 40.54213 | -3.57112 | 3370 ft | 188 kts | 31° |
| 2026-04-30 14:38 | 40.55086 | -3.55755 | 3683 ft | 209 kts | 75° |
| 2026-04-30 14:38 | 40.54983 | -3.53800 | 3982 ft | 229 kts | 120° |
| 2026-04-30 14:38 | 40.53805 | -3.52340 | 4354 ft | 247 kts | 160° |
| 2026-04-30 14:39 | 40.52061 | -3.52169 | 4834 ft | 265 kts | 195° |
| 2026-04-30 14:39 | 40.50365 | -3.53075 | 5663 ft | 267 kts | 206° |
| 2026-04-30 14:39 | 40.48693 | -3.54213 | 6579 ft | 269 kts | 207° |
| 2026-04-30 14:40 | 40.45168 | -3.55494 | 8240 ft | 274 kts | 172° |
| 2026-04-30 14:40 | 40.43257 | -3.55095 | 8955 ft | 282 kts | 174° |
| 2026-04-30 14:40 | 40.41289 | -3.54840 | 9707 ft | 286 kts | 177° |
| 2026-04-30 14:40 | 40.39312 | -3.54638 | 10609 ft | 283 kts | 178° |
| 2026-04-30 14:41 | 40.37323 | -3.54449 | 11130 ft | 297 kts | 178° |
| 2026-04-30 14:41 | 40.35173 | -3.54218 | 11321 ft | 321 kts | 177° |
| 2026-04-30 14:41 | 40.32876 | -3.53951 | 11564 ft | 342 kts | 176° |
| 2026-04-30 14:41 | 40.30445 | -3.53612 | 11955 ft | 355 kts | 175° |
| 2026-04-30 14:42 | 40.28003 | -3.53244 | 12799 ft | 355 kts | 175° |
| 2026-04-30 14:42 | 40.27174 | -3.53117 | 13021 ft | 356 kts | 175° |
| 2026-04-30 14:42 | 40.22941 | -3.52485 | 14155 ft | 363 kts | 175° |
| 2026-04-30 14:42 | 40.20420 | -3.52128 | 14767 ft | 366 kts | 175° |
| 2026-04-30 14:43 | 40.17874 | -3.51782 | 15378 ft | 369 kts | 175° |
| 2026-04-30 14:43 | 40.15311 | -3.51436 | 15998 ft | 372 kts | 175° |
| 2026-04-30 14:43 | 40.12727 | -3.51086 | 16614 ft | 375 kts | 175° |
| 2026-04-30 14:43 | 40.10123 | -3.50746 | 17211 ft | 377 kts | 178° |
| 2026-04-30 14:44 | 40.07512 | -3.51013 | 17781 ft | 378 kts | 195° |
| 2026-04-30 14:44 | 40.05092 | -3.52327 | 18357 ft | 379 kts | 213° |
| 2026-04-30 14:44 | 40.02933 | -3.54309 | 18885 ft | 381 kts | 217° |
| 2026-04-30 14:44 | 40.00780 | -3.56348 | 19422 ft | 383 kts | 217° |
| 2026-04-30 14:45 | 39.98620 | -3.58401 | 19955 ft | 386 kts | 217° |
| 2026-04-30 14:45 | 39.96449 | -3.60468 | 20495 ft | 388 kts | 217° |
| 2026-04-30 14:45 | 39.94258 | -3.62550 | 21014 ft | 391 kts | 217° |
| 2026-04-30 14:45 | 39.92047 | -3.64641 | 21527 ft | 394 kts | 217° |
| 2026-04-30 14:46 | 39.89822 | -3.66739 | 22029 ft | 396 kts | 216° |
| 2026-04-30 14:46 | 39.87580 | -3.68849 | 22513 ft | 399 kts | 216° |
| 2026-04-30 14:46 | 39.85322 | -3.70973 | 22979 ft | 402 kts | 216° |
| 2026-04-30 14:46 | 39.83817 | -3.72388 | 23280 ft | 404 kts | 216° |
| 2026-04-30 14:47 | 39.80753 | -3.75269 | 23832 ft | 407 kts | 216° |
| 2026-04-30 14:47 | 39.78452 | -3.77434 | 24201 ft | 410 kts | 216° |
| 2026-04-30 14:47 | 39.76136 | -3.79606 | 24572 ft | 411 kts | 216° |
| 2026-04-30 14:47 | 39.73810 | -3.81785 | 24940 ft | 413 kts | 216° |
| 2026-04-30 14:48 | 39.71505 | -3.83943 | 25291 ft | 415 kts | 216° |
| 2026-04-30 14:48 | 39.69158 | -3.86139 | 25641 ft | 417 kts | 216° |
| 2026-04-30 14:48 | 39.66802 | -3.88344 | 25995 ft | 419 kts | 216° |
| 2026-04-30 14:48 | 39.64434 | -3.90557 | 26324 ft | 420 kts | 216° |
| 2026-04-30 14:49 | 39.62027 | -3.92803 | 26679 ft | 422 kts | 216° |
| 2026-04-30 14:49 | 39.59635 | -3.95029 | 27013 ft | 423 kts | 216° |
| 2026-04-30 14:49 | 39.58052 | -3.96505 | 27224 ft | 424 kts | 216° |
| 2026-04-30 14:49 | 39.54866 | -3.99475 | 27652 ft | 427 kts | 216° |
| 2026-04-30 14:50 | 39.50810 | -4.03243 | 28182 ft | 429 kts | 215° |
| 2026-04-30 14:50 | 39.48377 | -4.05499 | 28479 ft | 431 kts | 215° |
| 2026-04-30 14:51 | 39.43490 | -4.10037 | 29073 ft | 434 kts | 215° |
| 2026-04-30 14:51 | 39.41032 | -4.12321 | 29353 ft | 435 kts | 215° |
| 2026-04-30 14:51 | 39.36096 | -4.16893 | 29897 ft | 438 kts | 215° |
| 2026-04-30 14:52 | 39.33615 | -4.19182 | 30142 ft | 439 kts | 215° |
| 2026-04-30 14:52 | 39.28636 | -4.23773 | 30505 ft | 441 kts | 215° |
| 2026-04-30 14:52 | 39.26140 | -4.26072 | 30691 ft | 441 kts | 215° |
| 2026-04-30 14:53 | 39.21155 | -4.30658 | 31049 ft | 438 kts | 215° |
| 2026-04-30 14:53 | 39.18694 | -4.32921 | 31071 ft | 431 kts | 215° |
| 2026-04-30 14:54 | 39.08989 | -4.41823 | 31073 ft | 427 kts | 215° |
| 2026-04-30 14:55 | 39.01727 | -4.48465 | 31066 ft | 427 kts | 215° |
| 2026-04-30 14:56 | 38.91489 | -4.56022 | 31068 ft | 428 kts | 195° |
| 2026-04-30 14:57 | 38.82678 | -4.57957 | 31050 ft | 429 kts | 190° |
| 2026-04-30 14:58 | 38.70895 | -4.60412 | 31044 ft | 429 kts | 190° |
| 2026-04-30 14:58 | 38.62049 | -4.62248 | 31041 ft | 429 kts | 190° |
| 2026-04-30 15:00 | 38.47137 | -4.65345 | 31063 ft | 441 kts | 190° |
| 2026-04-30 15:01 | 38.35059 | -4.67811 | 31062 ft | 441 kts | 190° |
| 2026-04-30 15:01 | 38.25966 | -4.69679 | 31064 ft | 444 kts | 191° |
| 2026-04-30 15:02 | 38.19834 | -4.70946 | 31065 ft | 448 kts | 191° |
| 2026-04-30 15:03 | 38.04417 | -4.74094 | 31063 ft | 448 kts | 191° |
| 2026-04-30 15:04 | 37.89030 | -4.77227 | 31037 ft | 447 kts | 191° |
| 2026-04-30 15:05 | 37.79835 | -4.79081 | 28035 ft | 447 kts | 189° |
| 2026-04-30 15:06 | 37.73587 | -4.78874 | 25751 ft | 457 kts | 172° |
| 2026-04-30 15:06 | 37.67379 | -4.76786 | 23413 ft | 461 kts | 167° |
| 2026-04-30 15:07 | 37.61265 | -4.74647 | 21353 ft | 450 kts | 166° |
| 2026-04-30 15:07 | 37.55592 | -4.72661 | 20699 ft | 397 kts | 166° |
| 2026-04-30 15:08 | 37.50446 | -4.70867 | 20438 ft | 371 kts | 166° |
| 2026-04-30 15:08 | 37.42835 | -4.69829 | 18000 ft | 388 kts | 180° |
| 2026-04-30 15:09 | 37.37497 | -4.70632 | 16233 ft | 383 kts | 201° |
| 2026-04-30 15:09 | 37.32681 | -4.73243 | 14277 ft | 369 kts | 203° |
| 2026-04-30 15:10 | 37.28127 | -4.75747 | 13115 ft | 336 kts | 203° |
| 2026-04-30 15:11 | 37.20638 | -4.79820 | 12611 ft | 267 kts | 198° |
| 2026-04-30 15:11 | 37.17018 | -4.80227 | 11936 ft | 267 kts | 180° |
| 2026-04-30 15:12 | 37.11351 | -4.80147 | 10687 ft | 275 kts | 180° |
| 2026-04-30 15:13 | 37.07488 | -4.80101 | 9840 ft | 280 kts | 181° |
| 2026-04-30 15:14 | 36.99708 | -4.79116 | 8088 ft | 280 kts | 174° |
| 2026-04-30 15:14 | 36.94213 | -4.78272 | 6875 ft | 252 kts | 174° |
| 2026-04-30 15:16 | 36.86196 | -4.76204 | 5684 ft | 237 kts | 137° |
| 2026-04-30 15:17 | 36.81842 | -4.70072 | 4234 ft | 239 kts | 132° |
| 2026-04-30 15:18 | 36.76581 | -4.62668 | 2591 ft | 204 kts | 132° |
| 2026-04-30 15:19 | 36.74022 | -4.59073 | 1812 ft | 159 kts | 131° |